createdAt,value
2019-04-07T00:00:14.322Z,74.79
2019-04-07T00:02:41.411Z,74.64
2019-04-07T00:05:13.043Z,74.14
2019-04-07T00:07:37.881Z,73.72
2019-04-07T00:10:04.958Z,73.50
2019-04-07T00:12:32.254Z,73.36
2019-04-07T00:14:59.537Z,72.96
2019-04-07T00:17:27.250Z,72.94
2019-04-07T00:19:54.759Z,73.23
2019-04-07T00:22:22.244Z,73.89
2019-04-07T00:24:49.584Z,74.77
2019-04-07T00:27:16.939Z,75.86
2019-04-07T00:29:44.217Z,76.82
2019-04-07T00:32:11.536Z,76.67
2019-04-07T00:34:39.711Z,77.11
2019-04-07T00:37:07.350Z,76.43
2019-04-07T00:39:34.763Z,76.29
2019-04-07T00:42:01.861Z,76.48
2019-04-07T00:44:29.187Z,76.56
2019-04-07T00:46:56.499Z,76.65
2019-04-07T00:49:23.540Z,76.69
2019-04-07T00:51:51.570Z,77.11
2019-04-07T00:54:18.909Z,77.05
2019-04-07T00:56:46.506Z,77.37
2019-04-07T00:59:13.562Z,77.60
2019-04-07T01:01:41.413Z,78.00
2019-04-07T01:04:08.976Z,78.53
2019-04-07T01:06:37.313Z,78.76
2019-04-07T01:09:04.588Z,79.01
2019-04-07T01:11:32.118Z,79.67
2019-04-07T01:13:59.455Z,80.15
2019-04-07T01:16:26.577Z,79.93
2019-04-07T01:18:53.629Z,80.10
2019-04-07T01:21:20.673Z,79.93
2019-04-07T01:23:48.076Z,79.96
2019-04-07T01:26:15.118Z,80.61
2019-04-07T01:28:42.966Z,81.60
2019-04-07T01:31:10.446Z,82.11
2019-04-07T01:33:37.802Z,82.63
2019-04-07T01:36:05.258Z,82.65
2019-04-07T01:38:33.287Z,82.39
2019-04-07T01:41:00.851Z,82.58
2019-04-07T01:43:28.089Z,82.23
2019-04-07T01:45:55.478Z,81.96
2019-04-07T01:48:22.592Z,81.73
2019-04-07T01:50:49.818Z,81.75
2019-04-07T01:53:16.875Z,81.81
2019-04-07T01:55:44.009Z,81.85
2019-04-07T01:58:11.957Z,81.76
2019-04-07T02:00:39.302Z,81.48
2019-04-07T02:03:06.603Z,81.41
2019-04-07T02:05:34.230Z,81.61
2019-04-07T02:08:01.526Z,81.53
2019-04-07T02:10:29.604Z,81.26
2019-04-07T02:12:56.899Z,81.17
2019-04-07T02:15:24.118Z,81.30
2019-04-07T02:17:52.852Z,81.84
2019-04-07T02:20:20.004Z,81.47
2019-04-07T02:22:49.796Z,80.84
2019-04-07T02:25:17.307Z,80.55
2019-04-07T02:27:44.693Z,80.44
2019-04-07T02:30:12.908Z,79.73
2019-04-07T02:32:40.292Z,78.83
2019-04-07T02:35:07.644Z,78.45
2019-04-07T02:37:35.216Z,78.13
2019-04-07T02:40:03.862Z,77.87
2019-04-07T02:42:32.053Z,77.58
2019-04-07T02:44:59.356Z,77.23
2019-04-07T02:47:26.644Z,76.66
2019-04-07T02:49:54.119Z,77.60
2019-04-07T02:52:22.985Z,77.93
2019-04-07T02:54:50.297Z,77.66
2019-04-07T02:57:17.422Z,77.30
2019-04-07T02:59:44.601Z,76.69
2019-04-07T03:02:12.098Z,76.56
2019-04-07T03:04:39.151Z,75.97
2019-04-07T03:07:06.818Z,76.13
2019-04-07T03:09:34.906Z,76.14
2019-04-07T03:12:03.907Z,75.98
2019-04-07T03:14:31.582Z,76.67
2019-04-07T03:16:59.878Z,76.99
2019-04-07T03:19:27.250Z,76.34
2019-04-07T03:21:55.434Z,75.78
2019-04-07T03:24:22.896Z,77.26
2019-04-07T03:26:51.311Z,78.41
2019-04-07T03:29:18.575Z,77.91
2019-04-07T03:31:48.430Z,77.82
2019-04-07T03:34:15.222Z,78.44
2019-04-07T03:37:12.678Z,79.32
2019-04-07T03:39:12.631Z,80.41
2019-04-07T03:41:40.165Z,81.20
2019-04-07T03:44:07.761Z,81.97
2019-04-07T03:46:35.366Z,82.92
2019-04-07T03:49:02.704Z,83.42
2019-04-07T03:51:30.262Z,83.90
2019-04-07T03:53:57.364Z,84.00
2019-04-07T03:56:25.409Z,84.16
2019-04-07T03:58:52.482Z,84.36
2019-04-07T04:01:19.601Z,84.45
2019-04-07T04:03:46.930Z,84.54
2019-04-07T04:06:14.966Z,84.45
2019-04-07T04:08:41.997Z,84.52
2019-04-07T04:11:11.686Z,84.79
2019-04-07T04:13:39.132Z,85.12
2019-04-07T04:16:06.489Z,85.39
2019-04-07T04:18:33.531Z,85.20
2019-04-07T04:21:01.472Z,85.29
2019-04-07T04:23:28.964Z,85.35
2019-04-07T04:25:56.326Z,85.30
2019-04-07T04:28:23.808Z,86.05
2019-04-07T04:30:51.236Z,86.46
2019-04-07T04:33:18.276Z,86.69
2019-04-07T04:35:46.069Z,86.58
2019-04-07T04:38:13.485Z,86.53
2019-04-07T04:40:40.875Z,86.25
2019-04-07T04:43:10.414Z,86.07
2019-04-07T04:45:38.645Z,84.32
2019-04-07T04:48:06.707Z,84.32
2019-04-07T04:50:33.956Z,83.27
2019-04-07T04:53:04.021Z,81.70
2019-04-07T04:55:31.890Z,80.31
2019-04-07T04:57:59.186Z,79.39
2019-04-07T05:00:26.743Z,78.33
2019-04-07T05:02:53.755Z,78.36
2019-04-07T05:05:22.986Z,77.48
2019-04-07T05:07:58.965Z,76.32
2019-04-07T05:10:19.375Z,74.47
2019-04-07T05:12:47.206Z,73.06
2019-04-07T05:15:14.725Z,71.33
2019-04-07T05:17:42.136Z,69.28
2019-04-07T05:20:09.396Z,67.61
2019-04-07T05:22:36.857Z,65.73
2019-04-07T05:25:04.079Z,64.36
2019-04-07T05:27:31.066Z,60.70
2019-04-07T05:29:58.398Z,59.88
2019-04-07T05:32:25.759Z,58.95
2019-04-07T05:34:53.105Z,56.61
2019-04-07T05:37:22.016Z,54.26
2019-04-07T05:39:49.089Z,51.63
2019-04-07T05:44:57.005Z,48.37
2019-04-07T05:47:24.282Z,46.79
2019-04-07T05:49:54.490Z,47.06
2019-04-07T05:52:20.510Z,45.00
2019-04-07T05:54:49.953Z,43.58
2019-04-07T05:57:17.028Z,43.78
2019-04-07T05:59:44.057Z,43.87
2019-04-07T06:02:11.184Z,42.27
2019-04-07T06:04:38.162Z,42.97
2019-04-07T06:07:05.892Z,42.16
2019-04-07T06:09:33.959Z,39.75
2019-04-07T06:12:06.014Z,38.34
2019-04-07T06:14:30.454Z,36.72
2019-04-07T06:16:57.789Z,36.85
2019-04-07T06:19:25.147Z,37.16
2019-04-07T06:21:52.667Z,36.89
2019-04-07T06:24:22.290Z,37.63
2019-04-07T06:26:57.523Z,37.23
2019-04-07T06:29:26.503Z,36.17
2019-04-07T06:31:53.947Z,37.58
2019-04-07T06:37:14.576Z,39.16
2019-04-07T06:39:42.898Z,38.32
2019-04-07T06:42:10.355Z,38.49
2019-04-07T06:47:24.924Z,38.02
2019-04-07T06:49:52.217Z,37.60
2019-04-07T06:52:24.004Z,36.06
2019-04-07T06:55:04.632Z,36.72
2019-04-07T07:03:01.341Z,34.79
2019-04-07T07:05:27.885Z,36.59
2019-04-07T07:07:56.354Z,35.95
2019-04-07T07:10:29.010Z,34.95
2019-04-07T07:12:52.450Z,35.18
2019-04-07T07:15:45.002Z,34.30
2019-04-07T07:18:12.990Z,34.93
2019-04-07T07:20:40.564Z,35.47
2019-04-07T07:23:10.155Z,34.50
2019-04-07T07:25:37.274Z,34.25
2019-04-07T07:28:04.478Z,35.04
2019-04-07T07:30:31.632Z,35.62
2019-04-07T07:32:58.688Z,34.48
2019-04-07T07:35:27.201Z,34.79
2019-04-07T07:37:58.114Z,34.42
2019-04-07T07:40:24.266Z,35.04
2019-04-07T07:42:55.428Z,34.14
2019-04-07T07:45:20.570Z,34.17
2019-04-07T07:47:51.217Z,35.01
2019-04-07T07:50:16.598Z,34.68
2019-04-07T07:52:44.336Z,36.05
2019-04-07T07:55:11.987Z,37.24
2019-04-07T07:57:38.986Z,34.63
2019-04-07T08:00:07.043Z,33.76
2019-04-07T08:02:34.495Z,36.21
2019-04-07T08:05:01.893Z,36.22
2019-04-07T08:07:29.184Z,35.32
2019-04-07T08:09:56.888Z,36.61
2019-04-07T08:12:25.540Z,36.63
2019-04-07T08:14:56.065Z,34.63
2019-04-07T08:17:21.538Z,34.92
2019-04-07T08:19:48.586Z,34.51
2019-04-07T08:22:26.449Z,33.53
2019-04-07T08:24:45.475Z,34.00
2019-04-07T08:27:12.835Z,34.09
2019-04-07T08:29:40.968Z,32.87
2019-04-07T08:32:14.420Z,33.11
2019-04-07T08:34:42.543Z,31.85
2019-04-07T08:37:09.595Z,30.22
2019-04-07T08:39:37.488Z,31.62
2019-04-07T08:42:09.608Z,32.44
2019-04-07T08:44:34.372Z,32.38
2019-04-07T08:47:02.514Z,33.63
2019-04-07T08:49:32.323Z,34.42
2019-04-07T08:51:59.015Z,34.10
2019-04-07T08:54:27.611Z,33.17
2019-04-07T08:56:56.898Z,33.51
2019-04-07T08:59:23.457Z,31.93
2019-04-07T09:01:53.208Z,29.88
2019-04-07T09:04:19.505Z,30.20
2019-04-07T09:06:47.463Z,28.12
2019-04-07T09:09:15.610Z,27.16
2019-04-07T09:11:43.016Z,25.78
2019-04-07T09:14:10.461Z,25.70
2019-04-07T09:16:37.733Z,26.85
2019-04-07T09:19:07.082Z,27.93
2019-04-07T09:21:39.991Z,28.47
2019-04-07T09:24:02.759Z,28.02
2019-04-07T09:26:29.793Z,27.79
2019-04-07T09:28:57.402Z,27.76
2019-04-07T09:31:24.569Z,26.72
2019-04-07T09:33:51.822Z,27.74
2019-04-07T09:36:19.107Z,29.07
2019-04-07T09:38:47.021Z,30.43
2019-04-07T09:41:16.694Z,32.85
2019-04-07T09:43:44.108Z,34.30
2019-04-07T09:46:11.916Z,34.93
2019-04-07T09:48:40.364Z,36.64
2019-04-07T09:51:08.676Z,37.11
2019-04-07T09:53:36.114Z,37.79
2019-04-07T09:56:03.794Z,37.29
2019-04-07T09:58:31.956Z,38.08
2019-04-07T10:00:59.670Z,39.50
2019-04-07T10:03:26.972Z,39.80
2019-04-07T10:05:54.021Z,40.66
2019-04-07T10:08:39.641Z,40.86
2019-04-07T10:11:06.686Z,39.97
2019-04-07T10:13:34.126Z,38.93
2019-04-07T10:16:01.159Z,40.25
2019-04-07T10:18:28.615Z,40.46
2019-04-07T10:20:55.956Z,39.31
2019-04-07T10:23:23.230Z,39.67
2019-04-07T10:25:50.736Z,38.39
2019-04-07T10:28:18.770Z,39.86
2019-04-07T10:30:46.037Z,41.41
2019-04-07T10:33:13.343Z,40.20
2019-04-07T10:35:40.934Z,38.54
2019-04-07T10:38:08.737Z,38.61
2019-04-07T10:40:35.786Z,38.72
2019-04-07T10:43:03.142Z,37.70
2019-04-07T10:45:30.495Z,37.36
2019-04-07T10:47:57.863Z,37.54
2019-04-07T10:50:25.683Z,36.27
2019-04-07T10:52:53.491Z,34.72
2019-04-07T10:55:20.772Z,32.97
2019-04-07T10:57:48.191Z,32.73
2019-04-07T11:00:15.795Z,32.93
2019-04-07T11:02:44.213Z,33.90
2019-04-07T11:05:12.033Z,34.88
2019-04-07T11:07:39.383Z,34.70
2019-04-07T11:10:07.850Z,34.02
2019-04-07T11:12:36.781Z,34.46
2019-04-07T11:15:04.657Z,35.44
2019-04-07T11:17:32.499Z,38.31
2019-04-07T11:19:59.815Z,36.08
2019-04-07T11:22:27.115Z,35.84
2019-04-07T11:24:54.397Z,35.44
2019-04-07T11:27:22.661Z,34.56
2019-04-07T11:29:50.675Z,34.37
2019-04-07T11:32:17.923Z,34.80
2019-04-07T11:34:45.493Z,34.93
2019-04-07T11:37:14.064Z,36.85
2019-04-07T11:39:41.482Z,36.21
2019-04-07T11:42:08.865Z,36.06
2019-04-07T11:44:35.848Z,35.97
2019-04-07T11:47:03.765Z,35.47
2019-04-07T11:49:31.285Z,36.89
2019-04-07T11:52:01.883Z,35.74
2019-04-07T11:54:29.554Z,35.52
2019-04-07T11:56:57.356Z,37.01
2019-04-07T11:59:24.414Z,34.83
2019-04-07T12:01:51.834Z,34.45
2019-04-07T12:04:19.722Z,34.68
2019-04-07T12:06:49.468Z,35.17
2019-04-07T12:09:16.296Z,36.24
2019-04-07T12:11:43.622Z,35.42
2019-04-07T12:14:15.068Z,34.63
2019-04-07T12:16:40.220Z,33.83
2019-04-07T12:19:09.442Z,33.12
2019-04-07T12:21:37.543Z,33.15
2019-04-07T12:24:05.989Z,33.15
2019-04-07T12:26:37.211Z,32.19
2019-04-07T12:29:02.633Z,31.78
2019-04-07T12:31:29.894Z,32.92
2019-04-07T12:33:57.372Z,32.93
2019-04-07T12:36:28.863Z,31.88
2019-04-07T12:38:54.212Z,30.18
2019-04-07T12:41:23.033Z,31.29
2019-04-07T12:43:51.369Z,32.00
2019-04-07T12:46:19.448Z,31.60
2019-04-07T12:48:46.957Z,33.91
2019-04-07T12:51:14.915Z,34.27
2019-04-07T12:53:42.266Z,34.17
2019-04-07T12:56:11.401Z,33.91
2019-04-07T12:58:39.304Z,34.23
2019-04-07T13:01:15.288Z,34.04
2019-04-07T13:03:37.484Z,33.33
2019-04-07T13:06:07.594Z,33.36
2019-04-07T13:08:33.819Z,33.73
2019-04-07T13:11:04.711Z,36.40
2019-04-07T13:13:32.722Z,37.33
2019-04-07T13:15:59.171Z,36.50
2019-04-07T13:18:27.429Z,35.67
2019-04-07T13:20:55.078Z,35.98
2019-04-07T13:23:22.325Z,35.65
2019-04-07T13:25:53.157Z,35.92
2019-04-07T13:28:18.096Z,36.01
2019-04-07T13:30:46.354Z,36.35
2019-04-07T13:33:14.014Z,37.48
2019-04-07T13:35:41.326Z,36.60
2019-04-07T13:38:09.399Z,37.67
2019-04-07T13:40:36.414Z,37.47
2019-04-07T13:43:04.383Z,37.16
2019-04-07T13:45:32.857Z,37.49
2019-04-07T13:48:00.354Z,37.57
2019-04-07T13:50:30.030Z,36.91
2019-04-07T13:52:59.118Z,36.68
2019-04-07T13:55:25.559Z,38.01
2019-04-07T13:57:57.827Z,37.51
2019-04-07T14:00:21.733Z,37.03
2019-04-07T14:02:49.049Z,37.44
2019-04-07T14:05:16.903Z,38.33
2019-04-07T14:07:44.986Z,38.32
2019-04-07T14:10:12.505Z,38.76
2019-04-07T14:12:42.239Z,38.67
2019-04-07T14:15:10.376Z,39.46
2019-04-07T14:17:37.405Z,39.88
2019-04-07T14:20:04.996Z,39.71
2019-04-07T14:22:33.165Z,39.63
2019-04-07T14:25:00.332Z,39.18
2019-04-07T14:27:27.681Z,38.56
2019-04-07T14:29:54.899Z,39.54
2019-04-07T14:32:23.057Z,39.45
2019-04-07T14:34:50.982Z,40.44
2019-04-07T14:37:20.269Z,41.21
2019-04-07T14:48:18.495Z,40.78
2019-04-07T14:50:45.559Z,41.48
2019-04-07T14:53:13.217Z,42.30
2019-04-07T14:55:41.139Z,41.73
2019-04-07T14:58:13.062Z,41.83
2019-04-07T15:00:38.675Z,41.60
2019-04-07T15:03:05.811Z,42.94
2019-04-07T15:05:33.137Z,42.70
2019-04-07T15:08:01.267Z,42.14
2019-04-07T15:10:28.589Z,42.36
2019-04-07T15:12:55.779Z,42.53
2019-04-07T15:15:23.656Z,43.38
2019-04-07T15:17:51.228Z,44.20
2019-04-07T15:20:18.222Z,44.75
2019-04-07T15:22:47.234Z,43.91
2019-04-07T15:25:15.247Z,44.37
2019-04-07T15:27:42.301Z,45.05
2019-04-07T15:30:13.146Z,45.06
2019-04-07T15:32:38.427Z,44.99
2019-04-07T15:35:06.280Z,45.57
2019-04-07T15:37:33.681Z,45.13
2019-04-07T15:40:03.562Z,45.37
2019-04-07T15:42:50.036Z,45.28
2019-04-07T15:45:13.637Z,45.53
2019-04-07T15:47:40.951Z,45.99
2019-04-07T15:50:08.478Z,46.32
2019-04-07T15:52:36.924Z,46.35
2019-04-07T15:55:05.116Z,46.58
2019-04-07T15:57:32.505Z,46.76
2019-04-07T16:00:01.680Z,47.30
2019-04-07T16:02:30.044Z,47.04
2019-04-07T16:05:02.284Z,46.91
2019-04-07T16:07:27.397Z,46.74
2019-04-07T16:09:56.934Z,46.77
2019-04-07T16:12:24.094Z,46.48
2019-04-07T16:14:51.395Z,46.56
2019-04-07T16:17:19.034Z,47.07
2019-04-07T16:19:50.833Z,46.94
2019-04-07T16:25:06.761Z,47.31
2019-04-07T16:27:36.500Z,47.56
2019-04-07T16:30:03.024Z,47.64
2019-04-07T16:32:32.718Z,47.60
2019-04-07T16:35:00.589Z,47.43
2019-04-07T16:37:30.127Z,47.29
2019-04-07T16:39:56.877Z,47.43
2019-04-07T16:42:24.135Z,47.53
2019-04-07T16:44:51.414Z,47.72
2019-04-07T16:47:23.260Z,47.87
2019-04-07T16:49:48.976Z,47.86
2019-04-07T16:52:16.443Z,47.75
2019-04-07T16:54:44.677Z,47.71
2019-04-07T16:57:12.959Z,48.01
2019-04-07T16:59:42.753Z,48.21
2019-04-07T17:02:09.217Z,48.36
2019-04-07T17:04:36.508Z,48.61
2019-04-07T17:07:05.467Z,49.12
2019-04-07T17:09:34.557Z,49.12
2019-04-07T17:12:01.042Z,49.35
2019-04-07T17:14:31.912Z,49.59
2019-04-07T17:16:57.926Z,49.97
2019-04-07T17:19:26.773Z,50.11
2019-04-07T17:21:54.018Z,50.22
2019-04-07T17:24:25.070Z,50.43
2019-04-07T17:26:50.357Z,50.83
2019-04-07T17:29:20.116Z,50.90
2019-04-07T17:31:47.478Z,50.68
2019-04-07T17:34:15.542Z,50.57
2019-04-07T17:36:43.010Z,50.77
2019-04-07T17:39:11.130Z,51.02
2019-04-07T17:41:39.089Z,51.23
2019-04-07T17:44:06.145Z,51.38
2019-04-07T17:46:34.093Z,51.30
2019-04-07T17:49:01.291Z,51.66
2019-04-07T17:51:28.725Z,51.70
2019-04-07T17:53:55.703Z,51.85
2019-04-07T17:56:22.834Z,52.10
2019-04-07T17:58:50.146Z,52.18
2019-04-07T18:01:20.679Z,52.33
2019-04-07T18:03:47.127Z,52.33
2019-04-07T18:06:16.014Z,52.46
2019-04-07T18:08:45.579Z,52.62
2019-04-07T18:11:13.625Z,52.62
2019-04-07T18:13:47.189Z,52.71
2019-04-07T18:16:12.232Z,53.09
2019-04-07T18:18:39.722Z,53.46
2019-04-07T18:21:07.273Z,53.56
2019-04-07T18:23:36.805Z,53.60
2019-04-07T18:26:06.916Z,53.72
2019-04-07T18:28:32.638Z,53.75
2019-04-07T18:31:04.318Z,53.90
2019-04-07T18:33:29.522Z,53.93
2019-04-07T18:35:56.806Z,53.99
2019-04-07T18:38:24.159Z,54.16
2019-04-07T18:40:51.172Z,54.39
2019-04-07T18:43:19.925Z,54.55
2019-04-07T18:45:48.431Z,54.64
2019-04-07T18:48:16.804Z,54.70
2019-04-07T18:50:44.382Z,54.86
2019-04-07T18:53:11.688Z,55.07
2019-04-07T18:55:39.383Z,55.37
2019-04-07T18:58:07.589Z,55.65
2019-04-07T19:00:35.097Z,55.91
2019-04-07T19:03:02.478Z,56.15
2019-04-07T19:05:32.646Z,56.51
2019-04-07T19:07:59.529Z,56.64
2019-04-07T19:10:26.885Z,57.12
2019-04-07T19:13:05.006Z,57.24
2019-04-07T19:15:24.094Z,57.41
2019-04-07T19:17:54.669Z,57.51
2019-04-07T19:20:20.440Z,57.67
2019-04-07T19:22:50.723Z,57.70
2019-04-07T19:25:17.188Z,57.68
2019-04-07T19:27:44.800Z,57.40
2019-04-07T19:30:14.460Z,57.18
2019-04-07T19:32:40.794Z,57.11
2019-04-07T19:35:08.802Z,56.84
2019-04-07T19:37:36.714Z,57.02
2019-04-07T19:40:04.343Z,56.80
2019-04-07T19:42:31.820Z,56.56
2019-04-07T19:44:59.567Z,56.54
2019-04-07T19:47:31.185Z,56.50
2019-04-07T19:49:55.642Z,56.44
2019-04-07T19:52:22.931Z,56.51
2019-04-07T19:54:51.544Z,56.41
2019-04-07T19:57:21.152Z,56.43
2019-04-07T19:59:47.350Z,56.50
2019-04-07T20:02:15.302Z,56.60
2019-04-07T20:04:45.316Z,56.72
2019-04-07T20:07:11.094Z,56.94
2019-04-07T20:09:44.095Z,57.19
2019-04-07T20:12:07.443Z,57.17
2019-04-07T20:17:29.316Z,57.20
2019-04-07T20:19:54.172Z,57.33
2019-04-07T20:22:23.128Z,57.52
2019-04-07T20:24:50.901Z,57.69
2019-04-07T20:27:22.635Z,57.68
2019-04-07T20:29:47.774Z,57.83
2019-04-07T20:32:14.830Z,58.01
2019-04-07T20:34:42.951Z,58.21
2019-04-07T20:37:10.247Z,58.91
2019-04-07T20:39:37.557Z,59.66
2019-04-07T20:42:05.171Z,60.15
2019-04-07T20:44:34.333Z,60.68
2019-04-07T20:47:01.711Z,61.01
2019-04-07T20:49:29.971Z,61.31
2019-04-07T20:51:58.545Z,61.41
2019-04-07T20:54:25.889Z,62.49
2019-04-07T20:56:53.217Z,62.86
2019-04-07T20:59:25.274Z,62.96
2019-04-07T21:01:59.932Z,63.36
2019-04-07T21:04:19.870Z,63.26
2019-04-07T21:06:48.331Z,63.73
2019-04-07T21:09:15.634Z,63.70
2019-04-07T21:11:45.917Z,64.70
2019-04-07T21:14:11.789Z,64.52
2019-04-07T21:16:40.039Z,64.45
2019-04-07T21:19:08.436Z,64.80
2019-04-07T21:21:35.911Z,64.91
2019-04-07T21:24:03.672Z,64.83
2019-04-07T21:26:31.941Z,65.58
2019-04-07T21:28:59.519Z,66.21
2019-04-07T21:31:26.650Z,66.58
2019-04-07T21:33:55.804Z,66.83
2019-04-07T21:36:22.594Z,67.52
2019-04-07T21:38:52.559Z,67.86
2019-04-07T21:41:18.638Z,67.56
2019-04-07T21:43:46.677Z,67.69
2019-04-07T21:46:14.045Z,67.83
2019-04-07T21:48:41.317Z,69.19
2019-04-07T21:51:10.705Z,69.95
2019-04-07T21:53:37.380Z,70.61
2019-04-07T21:56:04.692Z,70.37
2019-04-07T21:58:32.064Z,70.88
2019-04-07T22:01:02.854Z,71.28
2019-04-07T22:03:28.953Z,70.99
2019-04-07T22:05:57.898Z,71.17
2019-04-07T22:08:25.272Z,71.49
2019-04-07T22:10:53.670Z,71.71
2019-04-07T22:13:21.674Z,71.81
2019-04-07T22:15:55.631Z,71.96
2019-04-07T22:18:18.157Z,72.00
2019-04-07T22:20:47.887Z,72.06
2019-04-07T22:23:14.604Z,72.46
2019-04-07T22:25:42.088Z,72.35
2019-04-07T22:28:09.652Z,72.26
2019-04-07T22:30:39.215Z,72.80
2019-04-07T22:33:06.165Z,72.64
2019-04-07T22:35:34.473Z,73.02
2019-04-07T22:38:03.148Z,72.96
2019-04-07T22:40:34.207Z,73.56
2019-04-07T22:42:59.601Z,73.23
2019-04-07T22:45:29.862Z,73.40
2019-04-07T22:47:55.948Z,73.41
2019-04-07T22:50:23.335Z,73.70
2019-04-07T22:52:52.201Z,74.02
2019-04-07T22:55:19.517Z,74.15
2019-04-07T22:57:46.796Z,74.02
2019-04-07T23:00:14.887Z,73.91
2019-04-07T23:02:44.413Z,74.18
2019-04-07T23:05:11.529Z,74.07
2019-04-07T23:07:39.385Z,74.05
2019-04-07T23:10:06.766Z,74.39
2019-04-07T23:12:34.041Z,74.56
2019-04-07T23:15:01.594Z,74.74
2019-04-07T23:17:28.771Z,74.71
2019-04-07T23:19:56.672Z,74.91
2019-04-07T23:22:23.723Z,75.02
2019-04-07T23:24:50.932Z,75.42
2019-04-07T23:27:18.135Z,75.70
2019-04-07T23:29:45.207Z,75.83
2019-04-07T23:32:12.486Z,76.15
2019-04-07T23:34:39.785Z,76.31
2019-04-07T23:37:06.823Z,76.64
2019-04-07T23:39:33.876Z,76.82
2019-04-07T23:42:01.174Z,77.23
2019-04-07T23:44:28.229Z,77.53
2019-04-07T23:46:55.519Z,77.90
2019-04-07T23:49:22.643Z,78.36
2019-04-07T23:51:49.926Z,78.53
2019-04-07T23:54:16.983Z,78.35
2019-04-07T23:56:44.283Z,78.83
2019-04-07T23:59:11.410Z,79.10
